Terminal Aerodrome Forecast
Issued by NWS

Home | Current Version | Previous Version | Text Only | Print | Product List | Glossary On
Versions: 1 2 3 4 5 6 7 8 9 10 11 12 13
000
FTUS43 KBIS 181135
TAFJMS
TAF
KJMS 181135Z 1812/1912 29014G19KT P6SM SCT250 WS020/30040KT
     FM181330 30020G28KT P6SM FEW180 FEW250 WS020/30040KT
     FM181700 29024G34KT P6SM FEW250
     FM190000 26010KT P6SM FEW250
     FM190600 21006KT P6SM SCT110=

USA.gov is the U.S. government's official web portal to all federal, state and local government web resources and services.